メインページ
METAR-TAF:

METAR-TAF

空港 :

リーブルヴィル国際空港

リーブルヴィル, ガボン

緯度: 00-27N, 経度: 009-25E, 海抜: 12m

現時点の気象観測

当レポートは38分前の05:00(UTC)に作成
東/南東の風 5kt
気温 24°C
湿度 89%
気圧 1009 hPa
視程: 9000m
高度800ftの雲はほとんどない
高度1800ftの雲はほとんどない, 積乱雲.
高度2800ftの雲は散在している

METAR: FOOL 220500Z 11005KT 9000 FEW008 FEW018CB SCT028 24/22 Q1009 NOSIG

時間: 06:38 (05:38 UTC)

予報

当レポートは6時間38分前の23:00(UTC)に作成
予報は22日の 00時(UTC)から 23日の 06時(UTC)まで有効
南/南西の風 8kt
視程: 4500m
高度800ftの千切れ雲あり
高度1600ftの雲はほとんどない, 積乱雲.
高度2300ftの曇り
激しい雷雨, 雨
22日の 06時(UTC)から 22日の 08時(UTC)まで徐々に
視程: 8000m
高度1000ftの雲は散在している
高度3000ftの千切れ雲あり
22日の 19時(UTC)から 22日の 24時(UTC)まで一時的に
視程: 3500m
高度800ftの千切れ雲あり
高度1800ftの雲はほとんどない, 積乱雲.
高度2600ftの曇り
激しい雷雨, 雨

TAF: FOOL 212300Z 2200/2306 20008KT 4500 TSRA BKN008 FEW016CB OVC023 BECMG 2206/2208 8000 NSW SCT010 BKN030 TEMPO 2219/2224 3500 TSRA BKN008 FEW018CB OVC026

4,000以上の空港の気象観測と天気予報(METAR報とTAF報)

利用可能な観測所は地図上に黄色い丸と赤い丸で示す。

丸の上にカーソルを重ねると観測所名を参照できる。

次にクリックすると気象観測と天気予報を参照できる。

マップの切り替え:黒色「×」印の緑ボタンをクリックして拡大、「-」印の緑ボタンをクリックして縮小、緑色の三角印をクリックして隣りの地図に切り替え


METAR-TAF: